sensor_id;sensor_type;location;lat;lon;timestamp;P1;durP1;ratioP1;P2;durP2;ratioP2
9960;SDS011;5021;51.506;11.320;2022-11-23T00:00:55;10.43;;;8.00;;
9960;SDS011;5021;51.506;11.320;2022-11-23T00:03:21;9.97;;;8.47;;
9960;SDS011;5021;51.506;11.320;2022-11-23T00:05:47;11.23;;;9.20;;
9960;SDS011;5021;51.506;11.320;2022-11-23T00:08:13;13.47;;;8.50;;
9960;SDS011;5021;51.506;11.320;2022-11-23T00:10:39;10.40;;;7.40;;
9960;SDS011;5021;51.506;11.320;2022-11-23T00:13:06;12.37;;;8.23;;
9960;SDS011;5021;51.506;11.320;2022-11-23T00:15:32;13.47;;;8.53;;
9960;SDS011;5021;51.506;11.320;2022-11-23T00:17:59;10.33;;;8.27;;
9960;SDS011;5021;51.506;11.320;2022-11-23T00:20:25;10.10;;;8.30;;
9960;SDS011;5021;51.506;11.320;2022-11-23T00:22:51;12.00;;;9.07;;
9960;SDS011;5021;51.506;11.320;2022-11-23T00:25:17;12.17;;;8.13;;
9960;SDS011;5021;51.506;11.320;2022-11-23T00:27:43;10.73;;;8.00;;
9960;SDS011;5021;51.506;11.320;2022-11-23T00:30:09;13.87;;;7.73;;
9960;SDS011;5021;51.506;11.320;2022-11-23T00:32:35;10.97;;;7.87;;
9960;SDS011;5021;51.506;11.320;2022-11-23T00:35:01;11.83;;;7.73;;
9960;SDS011;5021;51.506;11.320;2022-11-23T00:37:27;11.60;;;7.70;;
9960;SDS011;5021;51.506;11.320;2022-11-23T00:39:53;9.80;;;7.60;;
9960;SDS011;5021;51.506;11.320;2022-11-23T00:42:19;10.50;;;8.03;;
9960;SDS011;5021;51.506;11.320;2022-11-23T00:44:45;11.60;;;7.23;;
9960;SDS011;5021;51.506;11.320;2022-11-23T00:47:11;8.53;;;6.50;;
9960;SDS011;5021;51.506;11.320;2022-11-23T00:49:37;9.10;;;6.53;;
9960;SDS011;5021;51.506;11.320;2022-11-23T00:52:03;9.10;;;6.50;;
9960;SDS011;5021;51.506;11.320;2022-11-23T00:54:29;9.37;;;6.53;;
9960;SDS011;5021;51.506;11.320;2022-11-23T00:56:55;9.93;;;6.10;;
9960;SDS011;5021;51.506;11.320;2022-11-23T00:59:21;11.07;;;7.40;;
9960;SDS011;5021;51.506;11.320;2022-11-23T01:01:47;8.90;;;6.50;;
9960;SDS011;5021;51.506;11.320;2022-11-23T01:04:13;9.20;;;6.07;;
9960;SDS011;5021;51.506;11.320;2022-11-23T01:06:39;9.43;;;6.03;;
9960;SDS011;5021;51.506;11.320;2022-11-23T01:09:17;8.67;;;6.37;;
9960;SDS011;5021;51.506;11.320;2022-11-23T01:11:44;8.60;;;6.77;;
9960;SDS011;5021;51.506;11.320;2022-11-23T01:14:10;7.83;;;5.57;;
9960;SDS011;5021;51.506;11.320;2022-11-23T01:16:37;6.73;;;5.37;;
9960;SDS011;5021;51.506;11.320;2022-11-23T01:19:05;7.57;;;5.73;;
9960;SDS011;5021;51.506;11.320;2022-11-23T01:21:31;8.83;;;6.30;;
9960;SDS011;5021;51.506;11.320;2022-11-23T01:23:58;8.40;;;6.67;;
9960;SDS011;5021;51.506;11.320;2022-11-23T01:26:24;7.90;;;7.10;;
9960;SDS011;5021;51.506;11.320;2022-11-23T01:28:50;8.50;;;6.40;;
9960;SDS011;5021;51.506;11.320;2022-11-23T01:31:17;8.30;;;6.40;;
9960;SDS011;5021;51.506;11.320;2022-11-23T01:33:44;10.97;;;7.17;;
9960;SDS011;5021;51.506;11.320;2022-11-23T01:38:39;6.50;;;5.53;;
9960;SDS011;5021;51.506;11.320;2022-11-23T01:41:06;7.83;;;6.93;;
9960;SDS011;5021;51.506;11.320;2022-11-23T01:43:33;7.73;;;6.13;;
9960;SDS011;5021;51.506;11.320;2022-11-23T01:45:59;8.40;;;5.47;;
9960;SDS011;5021;51.506;11.320;2022-11-23T01:48:26;7.67;;;5.70;;
9960;SDS011;5021;51.506;11.320;2022-11-23T01:50:53;6.03;;;5.43;;
9960;SDS011;5021;51.506;11.320;2022-11-23T01:53:21;6.70;;;5.43;;
9960;SDS011;5021;51.506;11.320;2022-11-23T01:55:47;6.53;;;5.83;;
9960;SDS011;5021;51.506;11.320;2022-11-23T01:58:15;8.97;;;5.77;;
9960;SDS011;5021;51.506;11.320;2022-11-23T02:00:42;8.30;;;6.23;;
9960;SDS011;5021;51.506;11.320;2022-11-23T02:03:09;7.97;;;5.40;;
9960;SDS011;5021;51.506;11.320;2022-11-23T02:05:43;6.57;;;5.47;;
9960;SDS011;5021;51.506;11.320;2022-11-23T02:08:10;10.30;;;5.80;;
9960;SDS011;5021;51.506;11.320;2022-11-23T02:10:36;6.37;;;5.20;;
9960;SDS011;5021;51.506;11.320;2022-11-23T02:13:04;8.37;;;6.03;;
9960;SDS011;5021;51.506;11.320;2022-11-23T02:15:30;7.60;;;5.60;;
9960;SDS011;5021;51.506;11.320;2022-11-23T02:17:57;7.43;;;5.10;;
9960;SDS011;5021;51.506;11.320;2022-11-23T02:20:24;7.43;;;5.20;;
9960;SDS011;5021;51.506;11.320;2022-11-23T02:25:39;7.93;;;5.00;;
9960;SDS011;5021;51.506;11.320;2022-11-23T02:28:02;6.97;;;5.20;;
9960;SDS011;5021;51.506;11.320;2022-11-23T02:30:29;5.53;;;5.03;;
9960;SDS011;5021;51.506;11.320;2022-11-23T02:32:55;7.87;;;5.23;;
9960;SDS011;5021;51.506;11.320;2022-11-23T02:35:21;6.80;;;5.30;;
9960;SDS011;5021;51.506;11.320;2022-11-23T02:37:47;6.30;;;4.83;;
9960;SDS011;5021;51.506;11.320;2022-11-23T02:40:47;5.77;;;4.77;;
9960;SDS011;5021;51.506;11.320;2022-11-23T02:43:06;5.70;;;4.40;;
9960;SDS011;5021;51.506;11.320;2022-11-23T02:45:36;5.83;;;4.97;;
9960;SDS011;5021;51.506;11.320;2022-11-23T02:48:04;5.33;;;4.47;;
9960;SDS011;5021;51.506;11.320;2022-11-23T02:50:30;7.33;;;4.80;;
9960;SDS011;5021;51.506;11.320;2022-11-23T02:52:56;5.83;;;4.93;;
9960;SDS011;5021;51.506;11.320;2022-11-23T02:55:22;6.87;;;5.40;;
9960;SDS011;5021;51.506;11.320;2022-11-23T02:57:48;5.77;;;4.60;;
9960;SDS011;5021;51.506;11.320;2022-11-23T03:00:15;5.73;;;4.43;;
9960;SDS011;5021;51.506;11.320;2022-11-23T03:02:41;5.00;;;4.50;;
9960;SDS011;5021;51.506;11.320;2022-11-23T03:05:07;5.63;;;4.73;;
9960;SDS011;5021;51.506;11.320;2022-11-23T03:07:33;4.80;;;4.13;;
9960;SDS011;5021;51.506;11.320;2022-11-23T03:09:59;6.83;;;4.33;;
9960;SDS011;5021;51.506;11.320;2022-11-23T03:12:25;5.83;;;4.70;;
9960;SDS011;5021;51.506;11.320;2022-11-23T03:14:51;5.77;;;4.30;;
9960;SDS011;5021;51.506;11.320;2022-11-23T03:17:17;4.57;;;3.87;;
9960;SDS011;5021;51.506;11.320;2022-11-23T03:19:43;5.60;;;4.53;;
9960;SDS011;5021;51.506;11.320;2022-11-23T03:22:09;4.70;;;3.90;;
9960;SDS011;5021;51.506;11.320;2022-11-23T03:24:35;5.13;;;3.60;;
9960;SDS011;5021;51.506;11.320;2022-11-23T03:27:01;4.93;;;4.37;;
9960;SDS011;5021;51.506;11.320;2022-11-23T03:29:27;8.27;;;4.87;;
9960;SDS011;5021;51.506;11.320;2022-11-23T03:31:54;5.00;;;4.50;;
9960;SDS011;5021;51.506;11.320;2022-11-23T03:34:20;4.23;;;3.80;;
9960;SDS011;5021;51.506;11.320;2022-11-23T03:36:46;5.33;;;3.77;;
9960;SDS011;5021;51.506;11.320;2022-11-23T03:39:12;4.03;;;3.67;;
9960;SDS011;5021;51.506;11.320;2022-11-23T03:41:38;4.43;;;3.60;;
9960;SDS011;5021;51.506;11.320;2022-11-23T03:44:04;4.23;;;3.57;;
9960;SDS011;5021;51.506;11.320;2022-11-23T03:46:30;6.60;;;3.93;;
9960;SDS011;5021;51.506;11.320;2022-11-23T03:48:56;4.20;;;3.73;;
9960;SDS011;5021;51.506;11.320;2022-11-23T03:51:22;4.17;;;3.70;;
9960;SDS011;5021;51.506;11.320;2022-11-23T03:53:48;5.17;;;3.93;;
9960;SDS011;5021;51.506;11.320;2022-11-23T03:56:14;5.10;;;3.83;;
9960;SDS011;5021;51.506;11.320;2022-11-23T03:58:40;4.50;;;3.43;;
9960;SDS011;5021;51.506;11.320;2022-11-23T04:01:06;6.27;;;4.07;;
9960;SDS011;5021;51.506;11.320;2022-11-23T04:03:32;3.40;;;3.10;;
9960;SDS011;5021;51.506;11.320;2022-11-23T04:05:58;5.87;;;3.37;;
9960;SDS011;5021;51.506;11.320;2022-11-23T04:08:24;5.20;;;3.70;;
9960;SDS011;5021;51.506;11.320;2022-11-23T04:10:50;7.63;;;4.53;;
9960;SDS011;5021;51.506;11.320;2022-11-23T04:13:16;6.13;;;3.77;;
9960;SDS011;5021;51.506;11.320;2022-11-23T04:15:42;6.07;;;4.20;;
9960;SDS011;5021;51.506;11.320;2022-11-23T04:18:08;4.07;;;3.70;;
9960;SDS011;5021;51.506;11.320;2022-11-23T04:20:34;5.00;;;3.90;;
9960;SDS011;5021;51.506;11.320;2022-11-23T04:23:00;8.60;;;5.00;;
9960;SDS011;5021;51.506;11.320;2022-11-23T04:25:26;5.13;;;4.53;;
9960;SDS011;5021;51.506;11.320;2022-11-23T04:27:52;6.90;;;5.70;;
9960;SDS011;5021;51.506;11.320;2022-11-23T04:30:18;6.77;;;5.30;;
9960;SDS011;5021;51.506;11.320;2022-11-23T04:32:44;5.50;;;4.77;;
9960;SDS011;5021;51.506;11.320;2022-11-23T04:35:11;5.43;;;4.43;;
9960;SDS011;5021;51.506;11.320;2022-11-23T04:37:37;6.73;;;5.43;;
9960;SDS011;5021;51.506;11.320;2022-11-23T04:40:03;9.30;;;6.40;;
9960;SDS011;5021;51.506;11.320;2022-11-23T04:42:29;9.13;;;6.17;;
9960;SDS011;5021;51.506;11.320;2022-11-23T04:44:55;6.23;;;5.23;;
9960;SDS011;5021;51.506;11.320;2022-11-23T04:47:22;5.87;;;5.07;;
9960;SDS011;5021;51.506;11.320;2022-11-23T04:49:48;7.37;;;5.70;;
9960;SDS011;5021;51.506;11.320;2022-11-23T04:52:14;11.63;;;7.73;;
9960;SDS011;5021;51.506;11.320;2022-11-23T04:54:40;7.60;;;6.67;;
9960;SDS011;5021;51.506;11.320;2022-11-23T04:57:06;10.60;;;7.97;;
9960;SDS011;5021;51.506;11.320;2022-11-23T04:59:32;9.17;;;6.90;;
9960;SDS011;5021;51.506;11.320;2022-11-23T05:04:34;9.23;;;6.50;;
9960;SDS011;5021;51.506;11.320;2022-11-23T05:07:00;9.10;;;6.23;;
9960;SDS011;5021;51.506;11.320;2022-11-23T05:09:26;7.37;;;5.80;;
9960;SDS011;5021;51.506;11.320;2022-11-23T05:11:52;7.87;;;6.10;;
9960;SDS011;5021;51.506;11.320;2022-11-23T05:14:18;8.97;;;6.83;;
9960;SDS011;5021;51.506;11.320;2022-11-23T05:16:44;11.07;;;6.73;;
9960;SDS011;5021;51.506;11.320;2022-11-23T05:19:10;7.50;;;5.70;;
9960;SDS011;5021;51.506;11.320;2022-11-23T05:21:36;6.90;;;6.20;;
9960;SDS011;5021;51.506;11.320;2022-11-23T05:24:02;7.13;;;5.80;;
9960;SDS011;5021;51.506;11.320;2022-11-23T05:26:28;11.83;;;9.20;;
9960;SDS011;5021;51.506;11.320;2022-11-23T05:28:54;29.70;;;22.00;;
9960;SDS011;5021;51.506;11.320;2022-11-23T05:31:20;9.30;;;7.73;;
9960;SDS011;5021;51.506;11.320;2022-11-23T05:33:46;11.30;;;9.00;;
9960;SDS011;5021;51.506;11.320;2022-11-23T05:36:12;11.47;;;6.80;;
9960;SDS011;5021;51.506;11.320;2022-11-23T05:38:38;20.27;;;14.57;;
9960;SDS011;5021;51.506;11.320;2022-11-23T05:41:05;11.90;;;9.17;;
9960;SDS011;5021;51.506;11.320;2022-11-23T05:43:31;227.03;;;118.50;;
9960;SDS011;5021;51.506;11.320;2022-11-23T05:45:57;156.90;;;87.83;;
9960;SDS011;5021;51.506;11.320;2022-11-23T05:48:24;103.73;;;61.00;;
9960;SDS011;5021;51.506;11.320;2022-11-23T05:50:49;91.17;;;54.57;;
9960;SDS011;5021;51.506;11.320;2022-11-23T05:53:16;75.67;;;45.93;;
9960;SDS011;5021;51.506;11.320;2022-11-23T05:55:42;57.30;;;36.60;;
9960;SDS011;5021;51.506;11.320;2022-11-23T05:58:08;37.20;;;23.60;;
9960;SDS011;5021;51.506;11.320;2022-11-23T06:00:34;29.97;;;20.37;;
9960;SDS011;5021;51.506;11.320;2022-11-23T06:03:00;24.37;;;17.97;;
9960;SDS011;5021;51.506;11.320;2022-11-23T06:05:26;24.80;;;17.73;;
9960;SDS011;5021;51.506;11.320;2022-11-23T06:07:53;22.53;;;14.03;;
9960;SDS011;5021;51.506;11.320;2022-11-23T06:10:19;17.70;;;13.17;;
9960;SDS011;5021;51.506;11.320;2022-11-23T06:12:45;19.87;;;13.20;;
9960;SDS011;5021;51.506;11.320;2022-11-23T06:15:11;15.03;;;10.37;;
9960;SDS011;5021;51.506;11.320;2022-11-23T06:17:37;9.97;;;7.60;;
9960;SDS011;5021;51.506;11.320;2022-11-23T06:20:04;9.53;;;8.47;;
9960;SDS011;5021;51.506;11.320;2022-11-23T06:22:30;10.47;;;9.17;;
9960;SDS011;5021;51.506;11.320;2022-11-23T06:24:56;8.70;;;6.33;;
9960;SDS011;5021;51.506;11.320;2022-11-23T06:27:22;8.17;;;6.63;;
9960;SDS011;5021;51.506;11.320;2022-11-23T06:29:48;8.83;;;6.27;;
9960;SDS011;5021;51.506;11.320;2022-11-23T06:32:14;8.77;;;6.30;;
9960;SDS011;5021;51.506;11.320;2022-11-23T06:34:40;8.70;;;7.40;;
9960;SDS011;5021;51.506;11.320;2022-11-23T06:37:06;6.23;;;5.63;;
9960;SDS011;5021;51.506;11.320;2022-11-23T06:39:32;9.77;;;7.90;;
9960;SDS011;5021;51.506;11.320;2022-11-23T06:41:58;7.63;;;6.63;;
9960;SDS011;5021;51.506;11.320;2022-11-23T06:44:24;9.27;;;6.70;;
9960;SDS011;5021;51.506;11.320;2022-11-23T06:46:50;7.97;;;6.80;;
9960;SDS011;5021;51.506;11.320;2022-11-23T06:49:16;10.93;;;8.27;;
9960;SDS011;5021;51.506;11.320;2022-11-23T06:51:44;13.73;;;11.40;;
9960;SDS011;5021;51.506;11.320;2022-11-23T06:54:10;14.43;;;11.03;;
9960;SDS011;5021;51.506;11.320;2022-11-23T06:56:36;15.63;;;11.10;;
9960;SDS011;5021;51.506;11.320;2022-11-23T06:59:02;19.00;;;13.13;;
9960;SDS011;5021;51.506;11.320;2022-11-23T07:01:28;19.70;;;13.17;;
9960;SDS011;5021;51.506;11.320;2022-11-23T07:03:54;28.43;;;21.17;;
9960;SDS011;5021;51.506;11.320;2022-11-23T07:06:21;22.43;;;16.70;;
9960;SDS011;5021;51.506;11.320;2022-11-23T07:08:47;24.90;;;16.87;;
9960;SDS011;5021;51.506;11.320;2022-11-23T07:11:13;17.80;;;12.50;;
9960;SDS011;5021;51.506;11.320;2022-11-23T07:13:39;16.90;;;13.50;;
9960;SDS011;5021;51.506;11.320;2022-11-23T07:16:05;16.47;;;11.30;;
9960;SDS011;5021;51.506;11.320;2022-11-23T07:18:31;13.47;;;9.93;;
9960;SDS011;5021;51.506;11.320;2022-11-23T07:20:57;15.37;;;11.60;;
9960;SDS011;5021;51.506;11.320;2022-11-23T07:23:24;16.67;;;12.57;;
9960;SDS011;5021;51.506;11.320;2022-11-23T07:25:50;23.40;;;16.03;;
9960;SDS011;5021;51.506;11.320;2022-11-23T07:28:16;24.97;;;15.73;;
9960;SDS011;5021;51.506;11.320;2022-11-23T07:30:42;25.47;;;17.67;;
9960;SDS011;5021;51.506;11.320;2022-11-23T07:33:09;15.57;;;12.47;;
9960;SDS011;5021;51.506;11.320;2022-11-23T07:35:36;27.37;;;18.70;;
9960;SDS011;5021;51.506;11.320;2022-11-23T07:38:02;31.53;;;21.23;;
9960;SDS011;5021;51.506;11.320;2022-11-23T07:40:31;27.63;;;20.00;;
9960;SDS011;5021;51.506;11.320;2022-11-23T07:42:58;24.47;;;17.07;;
9960;SDS011;5021;51.506;11.320;2022-11-23T07:45:25;36.83;;;22.77;;
9960;SDS011;5021;51.506;11.320;2022-11-23T07:48:01;25.83;;;18.93;;
9960;SDS011;5021;51.506;11.320;2022-11-23T07:50:27;17.23;;;11.20;;
9960;SDS011;5021;51.506;11.320;2022-11-23T07:52:53;15.97;;;11.30;;
9960;SDS011;5021;51.506;11.320;2022-11-23T07:55:20;17.57;;;11.03;;
9960;SDS011;5021;51.506;11.320;2022-11-23T07:57:46;15.53;;;11.83;;
9960;SDS011;5021;51.506;11.320;2022-11-23T08:00:12;13.50;;;10.73;;
9960;SDS011;5021;51.506;11.320;2022-11-23T08:02:38;11.47;;;10.07;;
9960;SDS011;5021;51.506;11.320;2022-11-23T08:05:05;17.10;;;12.07;;
9960;SDS011;5021;51.506;11.320;2022-11-23T08:07:31;17.93;;;13.00;;
9960;SDS011;5021;51.506;11.320;2022-11-23T08:09:57;18.77;;;14.93;;
9960;SDS011;5021;51.506;11.320;2022-11-23T08:12:23;15.93;;;12.57;;
9960;SDS011;5021;51.506;11.320;2022-11-23T08:14:49;12.77;;;10.53;;
9960;SDS011;5021;51.506;11.320;2022-11-23T08:17:15;12.30;;;10.27;;
9960;SDS011;5021;51.506;11.320;2022-11-23T08:19:41;13.27;;;10.27;;
9960;SDS011;5021;51.506;11.320;2022-11-23T08:22:07;14.83;;;11.23;;
9960;SDS011;5021;51.506;11.320;2022-11-23T08:24:33;16.83;;;12.70;;
9960;SDS011;5021;51.506;11.320;2022-11-23T08:26:59;14.20;;;11.10;;
9960;SDS011;5021;51.506;11.320;2022-11-23T08:29:25;15.33;;;10.70;;
9960;SDS011;5021;51.506;11.320;2022-11-23T08:31:51;17.77;;;14.73;;
9960;SDS011;5021;51.506;11.320;2022-11-23T08:34:17;17.00;;;14.27;;
9960;SDS011;5021;51.506;11.320;2022-11-23T08:36:44;18.17;;;12.70;;
9960;SDS011;5021;51.506;11.320;2022-11-23T08:39:12;18.97;;;11.90;;
9960;SDS011;5021;51.506;11.320;2022-11-23T08:41:38;25.23;;;15.13;;
9960;SDS011;5021;51.506;11.320;2022-11-23T08:44:05;18.30;;;12.73;;
9960;SDS011;5021;51.506;11.320;2022-11-23T08:46:33;16.17;;;10.30;;
9960;SDS011;5021;51.506;11.320;2022-11-23T08:48:59;14.53;;;10.73;;
9960;SDS011;5021;51.506;11.320;2022-11-23T08:51:25;10.57;;;8.40;;
9960;SDS011;5021;51.506;11.320;2022-11-23T08:53:51;12.57;;;8.63;;
9960;SDS011;5021;51.506;11.320;2022-11-23T08:56:17;12.27;;;8.47;;
9960;SDS011;5021;51.506;11.320;2022-11-23T08:58:43;7.90;;;6.80;;
9960;SDS011;5021;51.506;11.320;2022-11-23T09:01:10;7.30;;;5.10;;
9960;SDS011;5021;51.506;11.320;2022-11-23T09:03:37;7.60;;;3.83;;
9960;SDS011;5021;51.506;11.320;2022-11-23T09:06:04;5.87;;;4.17;;
9960;SDS011;5021;51.506;11.320;2022-11-23T09:08:30;6.20;;;3.43;;
9960;SDS011;5021;51.506;11.320;2022-11-23T09:10:59;4.63;;;3.33;;
9960;SDS011;5021;51.506;11.320;2022-11-23T09:13:26;4.10;;;3.10;;
9960;SDS011;5021;51.506;11.320;2022-11-23T09:15:55;5.00;;;3.37;;
9960;SDS011;5021;51.506;11.320;2022-11-23T09:18:21;7.00;;;3.40;;
9960;SDS011;5021;51.506;11.320;2022-11-23T09:20:47;6.23;;;3.43;;
9960;SDS011;5021;51.506;11.320;2022-11-23T09:23:13;5.30;;;3.20;;
9960;SDS011;5021;51.506;11.320;2022-11-23T09:25:39;4.30;;;3.00;;
9960;SDS011;5021;51.506;11.320;2022-11-23T09:28:07;6.33;;;3.40;;
9960;SDS011;5021;51.506;11.320;2022-11-23T09:30:33;6.73;;;3.40;;
9960;SDS011;5021;51.506;11.320;2022-11-23T09:32:59;4.00;;;2.80;;
9960;SDS011;5021;51.506;11.320;2022-11-23T09:35:25;4.53;;;3.37;;
9960;SDS011;5021;51.506;11.320;2022-11-23T09:37:57;4.27;;;3.20;;
9960;SDS011;5021;51.506;11.320;2022-11-23T09:40:24;6.33;;;3.20;;
9960;SDS011;5021;51.506;11.320;2022-11-23T09:48:34;3.70;;;3.03;;
9960;SDS011;5021;51.506;11.320;2022-11-23T09:51:06;6.60;;;3.20;;
9960;SDS011;5021;51.506;11.320;2022-11-23T09:53:37;6.27;;;3.20;;
9960;SDS011;5021;51.506;11.320;2022-11-23T09:56:04;6.20;;;3.07;;
9960;SDS011;5021;51.506;11.320;2022-11-23T09:58:32;5.97;;;3.37;;
9960;SDS011;5021;51.506;11.320;2022-11-23T10:01:04;4.50;;;2.80;;
9960;SDS011;5021;51.506;11.320;2022-11-23T10:03:33;4.87;;;3.70;;
9960;SDS011;5021;51.506;11.320;2022-11-23T10:16:31;6.47;;;4.27;;
9960;SDS011;5021;51.506;11.320;2022-11-23T10:21:43;5.97;;;4.00;;
9960;SDS011;5021;51.506;11.320;2022-11-23T10:26:39;6.30;;;3.53;;
9960;SDS011;5021;51.506;11.320;2022-11-23T10:29:10;5.00;;;3.40;;
9960;SDS011;5021;51.506;11.320;2022-11-23T10:31:37;4.37;;;3.27;;
9960;SDS011;5021;51.506;11.320;2022-11-23T10:34:10;4.33;;;3.60;;
9960;SDS011;5021;51.506;11.320;2022-11-23T10:36:38;4.23;;;3.33;;
9960;SDS011;5021;51.506;11.320;2022-11-23T10:39:20;5.17;;;3.20;;
9960;SDS011;5021;51.506;11.320;2022-11-23T10:41:48;6.73;;;4.67;;
9960;SDS011;5021;51.506;11.320;2022-11-23T10:46:42;6.20;;;3.80;;
9960;SDS011;5021;51.506;11.320;2022-11-23T10:49:12;7.27;;;3.43;;
9960;SDS011;5021;51.506;11.320;2022-11-23T10:51:39;4.43;;;2.60;;
9960;SDS011;5021;51.506;11.320;2022-11-23T10:54:29;4.47;;;3.10;;
9960;SDS011;5021;51.506;11.320;2022-11-23T10:56:56;5.07;;;3.00;;
9960;SDS011;5021;51.506;11.320;2022-11-23T10:59:26;5.53;;;3.00;;
9960;SDS011;5021;51.506;11.320;2022-11-23T11:02:00;7.47;;;3.47;;
9960;SDS011;5021;51.506;11.320;2022-11-23T11:04:26;4.40;;;2.97;;
9960;SDS011;5021;51.506;11.320;2022-11-23T11:06:56;5.20;;;3.17;;
9960;SDS011;5021;51.506;11.320;2022-11-23T11:09:37;7.00;;;3.03;;
9960;SDS011;5021;51.506;11.320;2022-11-23T11:12:04;4.50;;;3.00;;
9960;SDS011;5021;51.506;11.320;2022-11-23T11:14:30;3.37;;;2.73;;
9960;SDS011;5021;51.506;11.320;2022-11-23T11:16:56;6.10;;;2.90;;
9960;SDS011;5021;51.506;11.320;2022-11-23T11:19:26;6.93;;;3.20;;
9960;SDS011;5021;51.506;11.320;2022-11-23T11:21:53;6.20;;;2.70;;
9960;SDS011;5021;51.506;11.320;2022-11-23T11:24:25;6.20;;;3.00;;
9960;SDS011;5021;51.506;11.320;2022-11-23T11:26:56;5.20;;;2.70;;
9960;SDS011;5021;51.506;11.320;2022-11-23T11:29:26;6.97;;;3.07;;
9960;SDS011;5021;51.506;11.320;2022-11-23T11:37:13;4.77;;;3.03;;
9960;SDS011;5021;51.506;11.320;2022-11-23T11:39:50;5.30;;;2.77;;
9960;SDS011;5021;51.506;11.320;2022-11-23T11:45:03;4.60;;;2.60;;
9960;SDS011;5021;51.506;11.320;2022-11-23T11:47:30;8.43;;;3.07;;
9960;SDS011;5021;51.506;11.320;2022-11-23T11:49:59;6.73;;;2.80;;
9960;SDS011;5021;51.506;11.320;2022-11-23T11:52:27;5.17;;;3.10;;
9960;SDS011;5021;51.506;11.320;2022-11-23T11:57:28;6.03;;;2.90;;
9960;SDS011;5021;51.506;11.320;2022-11-23T11:59:56;6.80;;;3.07;;
9960;SDS011;5021;51.506;11.320;2022-11-23T12:02:26;5.90;;;3.30;;
9960;SDS011;5021;51.506;11.320;2022-11-23T12:07:43;5.53;;;2.83;;
9960;SDS011;5021;51.506;11.320;2022-11-23T12:10:12;6.10;;;2.70;;
9960;SDS011;5021;51.506;11.320;2022-11-23T12:12:39;7.10;;;2.53;;
9960;SDS011;5021;51.506;11.320;2022-11-23T12:15:05;4.90;;;2.23;;
9960;SDS011;5021;51.506;11.320;2022-11-23T12:32:24;3.60;;;2.10;;
9960;SDS011;5021;51.506;11.320;2022-11-23T12:42:57;5.80;;;2.87;;
9960;SDS011;5021;51.506;11.320;2022-11-23T12:47:54;4.17;;;2.37;;
9960;SDS011;5021;51.506;11.320;2022-11-23T13:00:18;6.27;;;2.70;;
9960;SDS011;5021;51.506;11.320;2022-11-23T13:18:52;3.97;;;2.50;;
9960;SDS011;5021;51.506;11.320;2022-11-23T13:23:45;5.03;;;2.70;;
9960;SDS011;5021;51.506;11.320;2022-11-23T13:26:18;8.37;;;2.73;;
9960;SDS011;5021;51.506;11.320;2022-11-23T13:28:45;7.07;;;3.07;;
9960;SDS011;5021;51.506;11.320;2022-11-23T13:33:45;7.73;;;2.90;;
9960;SDS011;5021;51.506;11.320;2022-11-23T13:36:12;4.63;;;2.67;;
9960;SDS011;5021;51.506;11.320;2022-11-23T13:38:58;3.37;;;2.10;;
9960;SDS011;5021;51.506;11.320;2022-11-23T13:44:17;10.57;;;2.73;;
9960;SDS011;5021;51.506;11.320;2022-11-23T13:46:44;5.37;;;2.57;;
9960;SDS011;5021;51.506;11.320;2022-11-23T13:49:30;7.03;;;2.40;;
9960;SDS011;5021;51.506;11.320;2022-11-23T13:54:51;4.37;;;2.50;;
9960;SDS011;5021;51.506;11.320;2022-11-23T13:57:18;4.43;;;2.40;;
9960;SDS011;5021;51.506;11.320;2022-11-23T13:59:44;5.27;;;2.43;;
9960;SDS011;5021;51.506;11.320;2022-11-23T14:04:38;4.70;;;2.33;;
9960;SDS011;5021;51.506;11.320;2022-11-23T14:07:04;4.77;;;2.30;;
9960;SDS011;5021;51.506;11.320;2022-11-23T14:09:49;5.73;;;2.57;;
9960;SDS011;5021;51.506;11.320;2022-11-23T14:35:46;4.13;;;2.43;;
9960;SDS011;5021;51.506;11.320;2022-11-23T14:41:11;5.47;;;2.60;;
9960;SDS011;5021;51.506;11.320;2022-11-23T14:43:39;4.77;;;2.60;;
9960;SDS011;5021;51.506;11.320;2022-11-23T14:46:12;6.97;;;2.43;;
9960;SDS011;5021;51.506;11.320;2022-11-23T14:48:38;5.87;;;2.50;;
9960;SDS011;5021;51.506;11.320;2022-11-23T14:51:08;4.43;;;2.40;;
9960;SDS011;5021;51.506;11.320;2022-11-23T14:53:42;5.07;;;3.03;;
9960;SDS011;5021;51.506;11.320;2022-11-23T14:57:10;5.70;;;2.60;;
9960;SDS011;5021;51.506;11.320;2022-11-23T14:59:17;6.00;;;3.17;;
9960;SDS011;5021;51.506;11.320;2022-11-23T15:04:31;5.27;;;2.70;;
9960;SDS011;5021;51.506;11.320;2022-11-23T15:07:11;4.07;;;2.47;;
9960;SDS011;5021;51.506;11.320;2022-11-23T15:12:06;5.70;;;2.70;;
9960;SDS011;5021;51.506;11.320;2022-11-23T15:14:32;4.80;;;2.90;;
9960;SDS011;5021;51.506;11.320;2022-11-23T15:17:14;4.53;;;2.80;;
9960;SDS011;5021;51.506;11.320;2022-11-23T15:19:41;3.93;;;2.70;;
9960;SDS011;5021;51.506;11.320;2022-11-23T15:22:16;4.87;;;2.80;;
9960;SDS011;5021;51.506;11.320;2022-11-23T15:24:44;4.80;;;2.83;;
9960;SDS011;5021;51.506;11.320;2022-11-23T15:27:14;4.33;;;2.50;;
9960;SDS011;5021;51.506;11.320;2022-11-23T15:29:49;4.93;;;2.87;;
9960;SDS011;5021;51.506;11.320;2022-11-23T15:32:20;4.60;;;2.63;;
9960;SDS011;5021;51.506;11.320;2022-11-23T15:34:47;5.60;;;2.63;;
9960;SDS011;5021;51.506;11.320;2022-11-23T15:37:13;6.17;;;2.60;;
9960;SDS011;5021;51.506;11.320;2022-11-23T15:39:39;9.23;;;3.43;;
9960;SDS011;5021;51.506;11.320;2022-11-23T15:42:07;4.43;;;3.00;;
9960;SDS011;5021;51.506;11.320;2022-11-23T15:44:33;6.53;;;3.27;;
9960;SDS011;5021;51.506;11.320;2022-11-23T15:47:03;10.17;;;3.60;;
9960;SDS011;5021;51.506;11.320;2022-11-23T15:49:30;4.80;;;3.63;;
9960;SDS011;5021;51.506;11.320;2022-11-23T15:52:00;4.93;;;3.73;;
9960;SDS011;5021;51.506;11.320;2022-11-23T15:54:33;3.93;;;3.33;;
9960;SDS011;5021;51.506;11.320;2022-11-23T15:57:00;5.83;;;3.50;;
9960;SDS011;5021;51.506;11.320;2022-11-23T16:01:52;4.80;;;3.60;;
9960;SDS011;5021;51.506;11.320;2022-11-23T16:04:25;7.63;;;4.50;;
9960;SDS011;5021;51.506;11.320;2022-11-23T16:06:51;8.40;;;4.37;;
9960;SDS011;5021;51.506;11.320;2022-11-23T16:11:57;7.27;;;4.90;;
9960;SDS011;5021;51.506;11.320;2022-11-23T16:14:27;6.17;;;4.67;;
9960;SDS011;5021;51.506;11.320;2022-11-23T16:19:38;5.17;;;4.30;;
9960;SDS011;5021;51.506;11.320;2022-11-23T16:22:05;9.47;;;6.70;;
9960;SDS011;5021;51.506;11.320;2022-11-23T16:24:32;8.57;;;6.30;;
9960;SDS011;5021;51.506;11.320;2022-11-23T16:26:59;10.20;;;7.27;;
9960;SDS011;5021;51.506;11.320;2022-11-23T16:29:27;10.53;;;6.93;;
9960;SDS011;5021;51.506;11.320;2022-11-23T16:31:58;13.23;;;9.50;;
9960;SDS011;5021;51.506;11.320;2022-11-23T16:34:25;12.57;;;8.70;;
9960;SDS011;5021;51.506;11.320;2022-11-23T16:36:52;13.07;;;8.97;;
9960;SDS011;5021;51.506;11.320;2022-11-23T16:39:20;16.07;;;11.53;;
9960;SDS011;5021;51.506;11.320;2022-11-23T16:41:47;19.23;;;13.57;;
9960;SDS011;5021;51.506;11.320;2022-11-23T16:44:13;17.73;;;13.07;;
9960;SDS011;5021;51.506;11.320;2022-11-23T16:46:39;23.77;;;16.20;;
9960;SDS011;5021;51.506;11.320;2022-11-23T16:49:10;17.07;;;12.53;;
9960;SDS011;5021;51.506;11.320;2022-11-23T16:51:38;25.53;;;15.97;;
9960;SDS011;5021;51.506;11.320;2022-11-23T16:54:04;19.63;;;12.80;;
9960;SDS011;5021;51.506;11.320;2022-11-23T16:56:30;20.70;;;15.20;;
9960;SDS011;5021;51.506;11.320;2022-11-23T16:58:57;19.77;;;12.17;;
9960;SDS011;5021;51.506;11.320;2022-11-23T17:01:24;30.87;;;19.67;;
9960;SDS011;5021;51.506;11.320;2022-11-23T17:03:51;32.50;;;22.40;;
9960;SDS011;5021;51.506;11.320;2022-11-23T17:06:17;41.77;;;28.27;;
9960;SDS011;5021;51.506;11.320;2022-11-23T17:08:47;20.33;;;12.93;;
9960;SDS011;5021;51.506;11.320;2022-11-23T17:11:15;19.23;;;14.83;;
9960;SDS011;5021;51.506;11.320;2022-11-23T17:13:42;26.30;;;17.83;;
9960;SDS011;5021;51.506;11.320;2022-11-23T17:16:19;18.90;;;13.50;;
9960;SDS011;5021;51.506;11.320;2022-11-23T17:18:46;24.83;;;16.90;;
9960;SDS011;5021;51.506;11.320;2022-11-23T17:21:12;18.60;;;13.97;;
9960;SDS011;5021;51.506;11.320;2022-11-23T17:23:39;19.90;;;10.70;;